KJXI

Fox Stephens Field - Gilmer Municipal Airport

Gilmer, Texas, USA
METAR KJXI 151935Z AUTO 00000KT 10SM CLR 11/00 A3024 RMK AO2 T01080000
Observed Flight Rules
Dec-15 @ 19:35 UTC (21 minutes ago) Visual Flight Rules
Wind Visibility Clouds
Calm 10 miles
  • Clear skies
Temperatures Readings
Current 11°C / 52°F
Dewpoint 0°C / 32°F
Humidity 47%
Altimeter 30.24" Hg
Pressure 1024 hPa
Elevation 127
METAR KJXI 151935Z AUTO 00000KT 10SM CLR 11/00 A3024 RMK AO2 T01080000
Observed Flight Rules
Dec-15 @ 19:35 UTC
(21 minutes ago)
VFR
Wind Visibility
Calm 10 miles
Clouds
  • Clear skies
Temperature Dewpoint
11°C / 52°F 0°C / 32°F
Humidity Altimeter Pressure
47% 30.24" Hg 1024 hPa